Time;durP1;ratioP1;P1;durP2;ratioP2;P2;SDS_P1;SDS_P2;PMS_P1;PMS_P2;Temp;Humidity;BMP_temperature;BMP_pressure;BME280_temperature;BME280_humidity;BME280_pressure;Samples;Min_cycle;Max_cycle;Signal;HPM_P1;HPM_P2
2023/05/11 00:00:09;;;;;;;0.60;0.60;;;8.80;61.70;;;;;;5023328;28;20833;-79
2023/05/11 00:02:36;;;;;;;0.20;0.20;;;8.80;65.00;;;;;;5019070;28;20522;-79
2023/05/11 00:05:03;;;;;;;0.43;0.20;;;8.80;63.10;;;;;;5024350;28;20435;-78
2023/05/11 00:07:30;;;;;;;1.88;0.40;;;8.80;56.90;;;;;;5020201;28;20684;-79
2023/05/11 00:09:57;;;;;;;0.30;0.30;;;8.80;55.10;;;;;;5026281;28;20431;-79
2023/05/11 00:12:23;;;;;;;0.20;0.15;;;8.70;52.90;;;;;;5022943;28;20439;-79
2023/05/11 00:14:50;;;;;;;0.30;0.30;;;8.70;60.50;;;;;;5022573;28;20438;-79
2023/05/11 00:17:20;;;;;;;0.20;0.20;;;8.70;66.70;;;;;;5019164;28;20414;-79
2023/05/11 00:19:50;;;;;;;0.30;0.30;;;8.60;66.60;;;;;;5016917;28;20509;-78
2023/05/11 00:22:16;;;;;;;0.30;0.30;;;8.60;77.10;;;;;;5021951;28;20810;-79
2023/05/11 00:24:43;;;;;;;0.30;0.30;;;8.60;94.40;;;;;;5028211;28;20437;-80
2023/05/11 00:27:10;;;;;;;0.10;0.10;;;8.60;99.90;;;;;;5022559;28;20482;-79
2023/05/11 00:29:36;;;;;;;0.20;0.20;;;8.60;99.50;;;;;;5023260;28;20431;-77
2023/05/11 00:32:06;;;;;;;0.30;0.20;;;8.50;98.50;;;;;;5017823;28;20680;-76
2023/05/11 00:34:36;;;;;;;0.20;0.20;;;8.50;99.90;;;;;;5015587;28;20528;-77
2023/05/11 00:37:03;;;;;;;0.30;0.30;;;8.50;99.90;;;;;;5013507;28;20804;-77
2023/05/11 00:39:29;;;;;;;0.10;0.10;;;8.50;99.90;;;;;;5016424;28;20432;-77
2023/05/11 00:41:56;;;;;;;0.22;0.22;;;8.50;99.90;;;;;;5039972;28;20467;-77
2023/05/11 00:44:23;;;;;;;0.52;0.52;;;8.40;99.90;;;;;;5014907;28;20439;-77
2023/05/11 00:46:52;;;;;;;0.45;0.30;;;8.30;99.90;;;;;;5021458;28;20793;-77
2023/05/11 00:49:20;;;;;;;1.00;0.80;;;8.30;99.90;;;;;;5028021;28;21060;-77
2023/05/11 00:51:47;;;;;;;0.40;0.40;;;8.30;99.90;;;;;;5024844;28;20940;-78
2023/05/11 00:54:14;;;;;;;2.05;0.43;;;8.30;99.90;;;;;;5020991;28;20821;-77
2023/05/11 00:56:41;;;;;;;0.13;0.13;;;8.20;99.90;;;;;;5023105;28;22406;-77
2023/05/11 00:59:08;;;;;;;0.30;0.30;;;8.20;99.90;;;;;;5021441;28;20435;-77
2023/05/11 01:01:37;;;;;;;0.20;0.20;;;8.20;99.90;;;;;;5026104;28;20427;-78
2023/05/11 01:04:04;;;;;;;0.50;0.30;;;8.20;99.90;;;;;;5014883;28;20438;-77
2023/05/11 01:06:53;;;;;;;0.30;0.30;;;8.10;99.90;;;;;;5024713;28;20435;-78
2023/05/11 01:09:55;;;;;;;1.75;0.88;;;8.10;99.90;;;;;;5027589;28;20427;-78
2023/05/11 01:12:51;;;;;;;0.30;0.30;;;8.10;99.90;;;;;;5021531;28;21000;-78
2023/05/11 01:15:27;;;;;;;0.47;0.47;;;8.10;99.90;;;;;;5025008;28;20430;-78
2023/05/11 01:18:05;;;;;;;0.60;0.38;;;8.10;99.90;;;;;;5034488;28;20438;-79
2023/05/11 01:20:33;;;;;;;0.25;0.25;;;8.10;99.90;;;;;;5025553;28;20438;-79
2023/05/11 01:23:23;;;;;;;0.30;0.30;;;8.00;99.90;;;;;;5025207;28;20441;-79
2023/05/11 01:26:29;;;;;;;0.10;0.10;;;8.00;99.90;;;;;;5024184;28;20581;-79
2023/05/11 01:28:56;;;;;;;0.28;0.28;;;8.00;99.90;;;;;;5019821;28;20447;-79
2023/05/11 01:31:26;;;;;;;0.50;0.50;;;7.90;99.90;;;;;;5028443;28;20496;-79
2023/05/11 01:34:06;;;;;;;0.20;0.20;;;7.90;99.90;;;;;;5022946;28;20836;-79
2023/05/11 01:36:37;;;;;;;0.20;0.15;;;7.90;99.90;;;;;;5021103;28;20439;-79
2023/05/11 01:39:11;;;;;;;0.20;0.20;;;7.90;99.90;;;;;;5020977;28;20434;-79
2023/05/11 01:41:40;;;;;;;0.40;0.40;;;7.90;99.90;;;;;;5023592;28;20504;-79
2023/05/11 01:44:10;;;;;;;0.17;0.17;;;7.90;99.90;;;;;;5026134;28;20435;-79
2023/05/11 01:46:38;;;;;;;0.43;0.43;;;7.90;99.90;;;;;;5022083;28;20438;-79
2023/05/11 01:49:06;;;;;;;0.30;0.30;;;7.80;99.90;;;;;;5027169;28;20438;-79
2023/05/11 01:51:36;;;;;;;0.40;0.40;;;7.80;99.90;;;;;;5039806;28;20470;-78
2023/05/11 01:54:07;;;;;;;0.20;0.20;;;7.80;99.90;;;;;;5019758;28;20801;-78
2023/05/11 01:56:36;;;;;;;0.30;0.30;;;7.80;99.90;;;;;;5029214;28;20485;-79
2023/05/11 01:59:04;;;;;;;0.20;0.20;;;7.70;99.90;;;;;;5015814;28;20431;-78
2023/05/11 02:01:34;;;;;;;0.50;0.50;;;7.70;99.90;;;;;;5022775;28;20449;-79
2023/05/11 02:04:03;;;;;;;0.45;0.45;;;7.80;99.90;;;;;;5023674;28;20450;-78
2023/05/11 02:06:33;;;;;;;0.28;0.28;;;7.80;99.90;;;;;;5025823;28;20450;-78
2023/05/11 02:09:00;;;;;;;0.20;0.20;;;7.80;99.90;;;;;;5016520;28;20434;-78
2023/05/11 02:11:29;;;;;;;0.10;0.10;;;7.70;99.90;;;;;;5021056;28;20985;-79
2023/05/11 02:13:57;;;;;;;1.00;0.45;;;7.70;99.90;;;;;;5025280;28;20499;-79
2023/05/11 02:16:26;;;;;;;0.25;0.25;;;7.60;99.90;;;;;;5038368;28;20446;-79
2023/05/11 02:18:55;;;;;;;0.30;0.30;;;7.60;99.90;;;;;;5027597;28;20529;-79
2023/05/11 02:21:24;;;;;;;0.20;0.20;;;7.60;99.90;;;;;;5026981;28;20485;-79
2023/05/11 02:23:53;;;;;;;0.20;0.20;;;7.60;99.90;;;;;;5023996;28;20438;-79
2023/05/11 02:26:20;;;;;;;0.20;0.20;;;7.70;99.90;;;;;;5022686;28;20449;-79
2023/05/11 02:28:47;;;;;;;0.13;0.13;;;7.70;99.90;;;;;;5020923;28;20514;-79
2023/05/11 02:31:24;;;;;;;0.40;0.40;;;7.60;99.90;;;;;;5021515;28;20426;-79
2023/05/11 02:33:53;;;;;;;0.20;0.20;;;7.60;99.90;;;;;;5025594;28;20435;-79
2023/05/11 02:36:22;;;;;;;0.10;0.10;;;7.60;99.90;;;;;;5021185;28;20454;-79
2023/05/11 02:38:53;;;;;;;0.30;0.30;;;7.60;99.90;;;;;;5017949;28;20442;-79
2023/05/11 02:41:27;;;;;;;2.00;0.70;;;7.60;99.90;;;;;;5022488;28;20438;-78
2023/05/11 02:44:00;;;;;;;0.22;0.22;;;7.50;99.90;;;;;;5041808;28;20478;-79
2023/05/11 02:46:32;;;;;;;0.20;0.20;;;7.50;99.90;;;;;;5023584;28;20489;-79
2023/05/11 02:49:02;;;;;;;0.20;0.20;;;7.50;99.90;;;;;;5039344;28;20461;-79
2023/05/11 02:51:35;;;;;;;0.30;0.30;;;7.50;99.90;;;;;;5023595;28;20434;-79
2023/05/11 02:54:09;;;;;;;0.20;0.20;;;7.50;99.90;;;;;;5024393;28;20454;-78
2023/05/11 02:56:43;;;;;;;0.20;0.20;;;7.50;99.90;;;;;;5016787;28;20482;-79
2023/05/11 02:59:11;;;;;;;0.20;0.20;;;7.50;99.90;;;;;;5017768;28;20443;-79
2023/05/11 03:01:41;;;;;;;0.20;0.20;;;7.50;99.90;;;;;;5024355;28;20438;-78
2023/05/11 03:04:12;;;;;;;0.20;0.20;;;7.40;99.90;;;;;;5023123;28;20473;-79
2023/05/11 03:06:38;;;;;;;0.20;0.20;;;7.40;99.90;;;;;;5019994;28;20435;-79
2023/05/11 03:09:07;;;;;;;0.50;0.50;;;7.40;99.90;;;;;;5024449;28;20473;-79
2023/05/11 03:11:36;;;;;;;0.40;0.40;;;7.40;99.90;;;;;;5011171;28;20443;-79
2023/05/11 03:14:07;;;;;;;0.15;0.15;;;7.40;99.90;;;;;;5018461;28;20785;-78
2023/05/11 03:16:36;;;;;;;1.00;0.37;;;7.40;99.90;;;;;;5020190;28;20427;-79
2023/05/11 03:19:07;;;;;;;0.30;0.30;;;7.40;99.90;;;;;;5039807;28;20806;-79
2023/05/11 03:21:37;;;;;;;0.30;0.30;;;7.40;99.90;;;;;;5020284;28;20922;-77
2023/05/11 03:24:09;;;;;;;0.28;0.28;;;7.40;99.90;;;;;;5024957;28;20513;-77
2023/05/11 03:26:36;;;;;;;0.10;0.10;;;7.40;99.90;;;;;;5019252;28;20446;-78
2023/05/11 03:29:03;;;;;;;0.30;0.30;;;7.40;99.90;;;;;;5018242;28;20432;-77
2023/05/11 03:31:30;;;;;;;0.40;0.40;;;7.40;99.90;;;;;;5016776;28;20697;-77
2023/05/11 03:33:57;;;;;;;0.25;0.25;;;7.50;99.90;;;;;;5018975;28;20542;-77
2023/05/11 03:36:26;;;;;;;0.32;0.32;;;7.50;99.90;;;;;;5023255;28;20804;-77
2023/05/11 03:38:56;;;;;;;0.30;0.30;;;7.50;99.90;;;;;;5021494;28;20441;-77
2023/05/11 03:41:25;;;;;;;1.60;0.20;;;7.50;99.90;;;;;;5019676;28;20616;-78
2023/05/11 03:43:54;;;;;;;0.20;0.20;;;7.60;99.90;;;;;;5018617;28;20805;-78
2023/05/11 03:46:25;;;;;;;1.10;0.28;;;7.60;99.90;;;;;;5026340;28;20458;-77
2023/05/11 03:48:53;;;;;;;0.30;0.30;;;7.60;99.90;;;;;;5022028;28;20476;-77
2023/05/11 03:51:20;;;;;;;0.23;0.23;;;7.70;99.90;;;;;;5024756;28;20770;-77
2023/05/11 03:53:47;;;;;;;0.32;0.32;;;7.70;99.90;;;;;;5025540;28;20427;-78
2023/05/11 03:56:17;;;;;;;0.20;0.20;;;7.70;99.90;;;;;;5023964;28;20984;-77
2023/05/11 03:58:44;;;;;;;0.27;0.27;;;7.80;99.90;;;;;;5022832;28;20441;-77
2023/05/11 04:01:12;;;;;;;1.00;0.33;;;7.70;99.90;;;;;;5022798;28;20431;-77
2023/05/11 04:03:52;;;;;;;0.40;0.40;;;7.80;99.90;;;;;;5022681;28;20516;-78
2023/05/11 04:06:19;;;;;;;0.30;0.30;;;7.80;99.90;;;;;;5015101;28;20999;-77
2023/05/11 04:08:46;;;;;;;0.40;0.20;;;7.80;99.90;;;;;;5020541;28;20423;-77
2023/05/11 04:11:12;;;;;;;0.25;0.25;;;7.90;99.90;;;;;;5040282;28;20442;-78
2023/05/11 04:13:39;;;;;;;0.50;0.50;;;7.90;99.90;;;;;;5025069;28;20427;-77
2023/05/11 04:16:06;;;;;;;0.40;0.40;;;8.00;99.90;;;;;;5026342;28;20925;-78
2023/05/11 04:18:33;;;;;;;0.40;0.40;;;8.10;99.90;;;;;;5022729;28;20423;-78
2023/05/11 04:21:00;;;;;;;0.32;0.32;;;8.10;99.90;;;;;;5018890;28;20432;-79
2023/05/11 04:23:26;;;;;;;0.30;0.30;;;8.20;99.90;;;;;;5021687;28;20440;-77
2023/05/11 04:25:57;;;;;;;1.40;0.30;;;8.30;99.90;;;;;;5036272;28;20439;-76
2023/05/11 04:28:26;;;;;;;0.30;0.30;;;8.40;99.90;;;;;;5012744;28;20445;-76
2023/05/11 04:30:55;;;;;;;0.88;0.80;;;8.50;99.90;;;;;;5025149;28;20926;-77
2023/05/11 04:33:22;;;;;;;0.50;0.50;;;8.50;99.90;;;;;;5021486;28;20438;-77
2023/05/11 04:35:53;;;;;;;0.35;0.35;;;8.60;99.90;;;;;;5021192;28;20604;-77
2023/05/11 04:38:21;;;;;;;2.00;0.80;;;8.70;99.90;;;;;;5019802;28;20434;-76
2023/05/11 04:40:49;;;;;;;4.10;0.30;;;8.80;99.90;;;;;;5013579;28;20505;-78
2023/05/11 04:43:17;;;;;;;0.20;0.20;;;8.90;99.90;;;;;;5026020;28;20439;-77
2023/05/11 04:45:48;;;;;;;0.30;0.30;;;8.90;99.90;;;;;;5022751;28;20482;-77
2023/05/11 04:48:15;;;;;;;0.40;0.40;;;9.10;99.90;;;;;;5020267;28;20456;-77
2023/05/11 04:50:46;;;;;;;0.32;0.32;;;9.20;99.90;;;;;;5023504;28;20449;-77
2023/05/11 04:53:13;;;;;;;0.23;0.23;;;9.30;99.90;;;;;;5023511;28;20535;-77
2023/05/11 04:55:39;;;;;;;0.43;0.40;;;9.30;99.90;;;;;;5022243;28;20913;-77
2023/05/11 04:58:06;;;;;;;0.30;0.30;;;9.40;99.90;;;;;;5023893;28;20456;-77
2023/05/11 05:00:33;;;;;;;0.30;0.30;;;9.50;99.90;;;;;;5015229;28;20431;-77
2023/05/11 05:03:00;;;;;;;0.43;0.43;;;9.60;99.90;;;;;;5018079;28;20445;-77
2023/05/11 05:05:27;;;;;;;0.17;0.17;;;9.70;99.90;;;;;;5015642;28;20422;-77
2023/05/11 05:07:53;;;;;;;1.40;0.38;;;9.80;99.90;;;;;;5014118;28;20466;-77
2023/05/11 05:10:20;;;;;;;0.40;0.40;;;9.90;99.90;;;;;;5016528;28;20438;-78
2023/05/11 05:12:48;;;;;;;4.40;0.45;;;10.10;99.90;;;;;;5012298;28;20439;-78
2023/05/11 05:15:14;;;;;;;0.20;0.20;;;10.40;99.90;;;;;;5018075;28;20983;-78
2023/05/11 05:17:42;;;;;;;1.40;0.50;;;10.40;83.30;;;;;;5020961;28;20425;-77
2023/05/11 05:20:14;;;;;;;0.20;0.20;;;10.40;25.10;;;;;;5023511;28;20431;-80
2023/05/11 05:22:41;;;;;;;0.38;0.25;;;10.50;7.10;;;;;;5025893;28;20838;-79
2023/05/11 05:25:08;;;;;;;0.40;0.40;;;10.60;1.00;;;;;;5015039;28;20452;-79
2023/05/11 05:27:34;;;;;;;0.20;0.20;;;10.60;1.00;;;;;;5021581;28;20944;-79
2023/05/11 05:30:01;;;;;;;0.20;0.20;;;10.70;1.00;;;;;;5028106;28;20439;-79
2023/05/11 05:32:28;;;;;;;0.40;0.40;;;10.80;1.00;;;;;;5025598;28;20447;-79
2023/05/11 05:34:55;;;;;;;0.50;0.50;;;11.00;1.00;;;;;;5030042;28;20435;-79
2023/05/11 05:37:21;;;;;;;0.50;0.50;;;11.20;1.00;;;;;;5026368;28;20450;-79
2023/05/11 05:39:48;;;;;;;0.35;0.35;;;11.20;1.00;;;;;;5023644;28;20866;-79
2023/05/11 05:42:15;;;;;;;0.40;0.40;;;11.30;1.00;;;;;;5015436;28;20431;-79
2023/05/11 05:44:41;;;;;;;0.30;0.30;;;11.40;1.00;;;;;;5031855;28;20438;-77
2023/05/11 05:47:08;;;;;;;0.30;0.30;;;11.40;1.00;;;;;;5029397;28;20529;-77
2023/05/11 05:49:35;;;;;;;0.60;0.40;;;11.40;99.90;;;;;;5046687;28;20934;-77
2023/05/11 05:52:02;;;;;;;2.60;0.32;;;11.40;99.90;;;;;;5030943;28;20426;-78
2023/05/11 05:54:28;;;;;;;0.20;0.20;;;11.50;99.90;;;;;;5024711;28;20477;-78
2023/05/11 05:56:55;;;;;;;0.98;0.50;;;11.40;99.90;;;;;;5029211;28;20434;-78
2023/05/11 05:59:23;;;;;;;0.50;0.50;;;11.30;99.90;;;;;;5026751;28;20469;-78
2023/05/11 06:01:50;;;;;;;0.20;0.20;;;11.40;99.90;;;;;;5029339;28;20958;-78
2023/05/11 06:04:17;;;;;;;0.30;0.30;;;11.50;99.90;;;;;;5038431;28;20441;-78
2023/05/11 06:06:45;;;;;;;0.20;0.20;;;11.70;99.90;;;;;;5027300;28;21308;-78
2023/05/11 06:09:14;;;;;;;0.32;0.32;;;11.70;91.70;;;;;;5027544;28;20458;-78
2023/05/11 06:11:41;;;;;;;0.25;0.25;;;11.80;1.00;;;;;;5044800;28;20431;-78
2023/05/11 06:14:08;;;;;;;0.82;0.52;;;11.70;1.00;;;;;;5032283;28;20469;-78
2023/05/11 06:16:37;;;;;;;0.32;0.32;;;11.80;1.00;;;;;;5025285;28;20847;-78
2023/05/11 06:19:10;;;;;;;0.40;0.40;;;11.60;1.00;;;;;;5034282;28;20514;-78
2023/05/11 06:21:37;;;;;;;0.70;0.50;;;11.70;1.00;;;;;;5030603;28;20482;-77
2023/05/11 06:24:04;;;;;;;0.10;0.10;;;11.80;1.00;;;;;;5024618;28;20488;-78
2023/05/11 06:26:30;;;;;;;0.20;0.20;;;11.90;99.90;;;;;;5031425;28;20849;-78
2023/05/11 06:28:57;;;;;;;0.60;0.30;;;11.90;99.90;;;;;;5025644;28;20427;-77
2023/05/11 06:31:24;;;;;;;1.00;0.60;;;12.00;99.90;;;;;;5028150;28;20439;-78
2023/05/11 06:33:51;;;;;;;0.30;0.30;;;12.20;99.90;;;;;;5026495;28;21021;-78
2023/05/11 06:36:17;;;;;;;0.40;0.40;;;12.50;99.90;;;;;;5030234;28;20557;-78
2023/05/11 06:38:44;;;;;;;0.40;0.40;;;12.40;96.70;;;;;;5025188;28;20444;-78
2023/05/11 06:41:13;;;;;;;0.40;0.40;;;12.50;99.90;;;;;;5040628;28;20431;-78
2023/05/11 06:43:39;;;;;;;0.35;0.35;;;12.60;99.90;;;;;;5021494;28;20826;-78
2023/05/11 06:46:06;;;;;;;0.30;0.30;;;12.50;1.00;;;;;;5025512;28;20441;-78
2023/05/11 06:48:33;;;;;;;0.50;0.50;;;12.60;99.90;;;;;;5025926;28;20469;-78
2023/05/11 06:51:00;;;;;;;0.43;0.43;;;12.80;1.00;;;;;;5027619;28;20509;-78
2023/05/11 06:53:27;;;;;;;0.20;0.20;;;12.80;1.00;;;;;;5030038;28;20441;-78
2023/05/11 06:55:55;;;;;;;1.00;0.50;;;13.00;1.00;;;;;;5027145;28;20434;-78
2023/05/11 06:58:21;;;;;;;0.20;0.20;;;12.90;1.00;;;;;;5035193;28;20445;-78
2023/05/11 07:00:48;;;;;;;0.38;0.35;;;13.00;99.90;;;;;;5030766;28;20561;-77
2023/05/11 07:03:21;;;;;;;0.40;0.40;;;13.20;1.00;;;;;;5044320;28;20445;-77
2023/05/11 07:05:48;;;;;;;0.30;0.30;;;13.10;18.40;;;;;;5044081;28;20435;-78
2023/05/11 07:08:14;;;;;;;0.40;0.40;;;13.30;99.90;;;;;;5038963;28;20952;-78
2023/05/11 07:10:41;;;;;;;0.60;0.60;;;13.30;1.00;;;;;;5045216;28;20433;-78
2023/05/11 07:13:08;;;;;;;0.30;0.30;;;13.50;99.90;;;;;;5047437;28;21961;-77
2023/05/11 07:15:35;;;;;;;1.40;0.60;;;13.60;99.90;;;;;;5041612;28;20423;-78
2023/05/11 07:18:02;;;;;;;0.50;0.50;;;13.60;99.90;;;;;;5010989;28;20800;-79
2023/05/11 07:20:29;;;;;;;2.22;0.47;;;13.40;1.00;;;;;;5018014;28;20419;-80
2023/05/11 07:22:58;;;;;;;0.40;0.40;;;13.20;1.00;;;;;;5018118;28;20431;-79
2023/05/11 07:25:24;;;;;;;0.40;0.40;;;13.00;1.00;;;;;;5018601;28;20449;-79
2023/05/11 07:27:51;;;;;;;0.85;0.38;;;13.20;1.00;;;;;;5025382;28;20802;-78
2023/05/11 07:30:18;;;;;;;0.20;0.20;;;13.30;99.90;;;;;;5022569;28;21078;-77
2023/05/11 07:32:46;;;;;;;0.40;0.40;;;13.50;99.90;;;;;;5025259;28;20502;-78
2023/05/11 07:35:14;;;;;;;0.35;0.35;;;13.70;1.00;;;;;;5020298;28;20435;-77
2023/05/11 07:37:41;;;;;;;0.70;0.50;;;13.80;99.90;;;;;;5020281;28;20435;-78
2023/05/11 07:40:08;;;;;;;0.20;0.20;;;14.10;99.90;;;;;;5016789;28;20468;-78
2023/05/11 07:42:38;;;;;;;0.43;0.43;;;14.30;99.90;;;;;;5023378;28;20506;-77
2023/05/11 07:45:05;;;;;;;0.50;0.50;;;14.40;1.00;;;;;;5019697;28;20437;-76
2023/05/11 07:47:32;;;;;;;0.75;0.73;;;14.60;99.90;;;;;;5024629;28;20450;-76
2023/05/11 07:50:02;;;;;;;0.40;0.40;;;14.50;1.00;;;;;;5020463;28;20492;-76
2023/05/11 07:52:29;;;;;;;0.40;0.40;;;14.50;1.00;;;;;;5036008;28;20914;-76
2023/05/11 07:54:56;;;;;;;0.70;0.60;;;14.50;99.90;;;;;;5020024;28;20434;-76
2023/05/11 07:57:22;;;;;;;0.30;0.30;;;14.40;1.00;;;;;;5021943;28;20440;-76
2023/05/11 07:59:50;;;;;;;0.50;0.50;;;14.30;27.90;;;;;;5018299;28;20430;-76
2023/05/11 08:02:17;;;;;;;0.43;0.43;;;14.50;99.90;;;;;;5021735;28;20434;-76
2023/05/11 08:04:47;;;;;;;0.40;0.40;;;14.70;99.90;;;;;;5019514;28;21163;-76
2023/05/11 08:07:14;;;;;;;0.28;0.28;;;15.00;99.90;;;;;;5019233;28;20977;-76
2023/05/11 08:09:41;;;;;;;0.45;0.45;;;15.20;11.20;;;;;;5018075;28;20434;-76
2023/05/11 08:12:08;;;;;;;0.57;0.57;;;15.50;1.00;;;;;;5026059;28;20439;-76
2023/05/11 08:14:36;;;;;;;2.20;0.50;;;15.80;99.90;;;;;;5014064;28;20469;-77
2023/05/11 08:17:03;;;;;;;0.40;0.40;;;16.00;99.90;;;;;;5009636;28;20537;-76
2023/05/11 08:19:30;;;;;;;0.50;0.50;;;16.00;99.90;;;;;;5010741;28;20522;-77
2023/05/11 08:22:00;;;;;;;0.57;0.57;;;16.20;99.90;;;;;;5014743;28;21344;-74
2023/05/11 08:24:26;;;;;;;0.38;0.38;;;16.30;1.00;;;;;;5021443;28;20448;-75
2023/05/11 08:26:53;;;;;;;0.60;0.60;;;16.50;1.00;;;;;;5010773;28;20428;-75
2023/05/11 08:29:22;;;;;;;0.50;0.50;;;16.80;1.00;;;;;;5013684;28;20435;-76
2023/05/11 08:31:49;;;;;;;0.63;0.52;;;17.00;1.00;;;;;;5015628;28;20435;-76
2023/05/11 08:34:15;;;;;;;0.90;0.90;;;17.40;1.00;;;;;;5018069;28;20443;-76
2023/05/11 08:36:46;;;;;;;0.60;0.60;;;17.90;1.00;;;;;;5013918;28;20443;-76
2023/05/11 08:39:13;;;;;;;0.60;0.60;;;18.10;99.90;;;;;;5017850;28;20435;-76
2023/05/11 08:41:40;;;;;;;0.50;0.50;;;18.10;99.90;;;;;;5018750;28;20438;-75
2023/05/11 08:44:10;;;;;;;0.87;0.50;;;18.10;99.90;;;;;;5021715;28;20456;-76
2023/05/11 08:46:40;;;;;;;0.40;0.40;;;18.20;99.90;;;;;;5012506;28;21036;-76
2023/05/11 08:49:09;;;;;;;1.52;0.50;;;18.20;99.90;;;;;;5017719;28;20522;-76
2023/05/11 08:51:36;;;;;;;0.52;0.52;;;18.00;99.90;;;;;;5016431;28;20465;-75
2023/05/11 08:54:03;;;;;;;0.68;0.68;;;17.70;99.90;;;;;;5016421;28;20449;-76
2023/05/11 08:56:30;;;;;;;0.97;0.80;;;17.50;99.90;;;;;;5015732;28;20481;-76
2023/05/11 08:58:57;;;;;;;0.63;0.60;;;17.70;99.90;;;;;;5018117;28;20422;-75
2023/05/11 09:01:28;;;;;;;0.50;0.50;;;17.90;1.00;;;;;;5020110;28;20899;-77
2023/05/11 09:03:57;;;;;;;0.50;0.50;;;18.20;1.00;;;;;;5014137;28;20449;-77
2023/05/11 09:06:27;;;;;;;0.57;0.57;;;18.50;99.90;;;;;;5017424;28;20518;-77
2023/05/11 09:08:54;;;;;;;0.70;0.70;;;18.70;99.90;;;;;;5017649;28;20925;-77
2023/05/11 09:11:21;;;;;;;0.50;0.50;;;18.80;99.90;;;;;;5015217;28;20441;-77
2023/05/11 09:13:51;;;;;;;0.63;0.63;;;18.90;99.90;;;;;;5016334;28;20517;-77
2023/05/11 09:16:21;;;;;;;0.70;0.70;;;18.60;99.90;;;;;;5011821;28;20443;-78
2023/05/11 09:19:06;;;;;;;0.60;0.60;;;18.30;99.90;;;;;;5015267;28;20901;-78
2023/05/11 09:21:37;;;;;;;0.80;0.80;;;18.30;99.90;;;;;;5015299;28;20426;-77
2023/05/11 09:24:04;;;;;;;0.57;0.55;;;18.20;99.90;;;;;;5010987;28;21961;-77
2023/05/11 09:26:33;;;;;;;0.77;0.77;;;18.10;99.90;;;;;;5014513;28;20902;-78
2023/05/11 09:28:59;;;;;;;0.63;0.63;;;18.30;99.90;;;;;;5011548;28;20434;-77
2023/05/11 09:31:39;;;;;;;0.88;0.70;;;18.30;99.90;;;;;;5014558;28;20972;-77
2023/05/11 09:34:17;;;;;;;0.80;0.80;;;18.70;99.90;;;;;;5016255;28;20443;-77
2023/05/11 09:36:47;;;;;;;0.55;0.55;;;19.00;99.90;;;;;;5018155;28;20435;-78
2023/05/11 09:39:14;;;;;;;0.80;0.80;;;19.10;99.90;;;;;;5014470;28;21003;-77
2023/05/11 09:41:45;;;;;;;0.65;0.65;;;19.00;99.90;;;;;;5015950;28;20431;-77
2023/05/11 09:44:14;;;;;;;1.23;0.70;;;19.20;99.90;;;;;;5025232;28;20434;-77
2023/05/11 09:46:43;;;;;;;1.30;0.93;;;18.80;99.90;;;;;;5020563;28;20431;-77
2023/05/11 09:49:11;;;;;;;0.70;0.70;;;18.80;99.90;;;;;;5015148;28;20527;-78
2023/05/11 09:51:39;;;;;;;0.75;0.75;;;18.60;99.90;;;;;;5022126;28;20441;-77
2023/05/11 09:54:25;;;;;;;0.60;0.60;;;18.60;99.90;;;;;;5017129;28;20438;-78
2023/05/11 09:56:55;;;;;;;0.70;0.70;;;18.70;99.90;;;;;;5020980;28;20426;-77
2023/05/11 09:59:39;;;;;;;0.90;0.77;;;19.00;99.90;;;;;;5023148;28;20427;-77
2023/05/11 10:02:23;;;;;;;0.68;0.60;;;18.90;99.90;;;;;;5022948;28;21052;-77
2023/05/11 10:04:51;;;;;;;0.70;0.70;;;18.90;99.90;;;;;;5019080;28;20520;-78
2023/05/11 10:07:32;;;;;;;0.50;0.50;;;19.10;99.90;;;;;;5025220;28;20439;-77
2023/05/11 10:10:04;;;;;;;0.90;0.60;;;19.20;99.90;;;;;;5023042;28;20525;-78
2023/05/11 10:12:37;;;;;;;1.05;1.05;;;19.30;99.90;;;;;;5023994;28;20500;-77
2023/05/11 10:15:07;;;;;;;0.77;0.70;;;19.30;99.90;;;;;;5020259;28;20444;-77
2023/05/11 10:17:35;;;;;;;0.50;0.50;;;19.00;99.90;;;;;;5023607;28;20443;-78
2023/05/11 10:20:04;;;;;;;1.05;0.60;;;18.60;99.90;;;;;;5019393;28;20428;-78
2023/05/11 10:22:35;;;;;;;0.80;0.80;;;18.40;99.90;;;;;;5022177;28;20491;-76
2023/05/11 10:25:05;;;;;;;0.63;0.63;;;18.50;99.90;;;;;;5018685;28;20436;-78
2023/05/11 10:27:32;;;;;;;1.13;0.90;;;18.80;99.90;;;;;;5018611;28;20873;-78
2023/05/11 10:30:02;;;;;;;1.00;0.80;;;18.90;99.90;;;;;;5019263;28;20431;-76
2023/05/11 10:32:33;;;;;;;0.80;0.80;;;19.10;99.90;;;;;;5019275;28;21001;-76
2023/05/11 10:35:03;;;;;;;1.80;0.80;;;19.30;99.90;;;;;;5019397;28;20443;-75
2023/05/11 10:37:32;;;;;;;1.00;0.93;;;19.40;99.90;;;;;;5017176;28;20481;-76
2023/05/11 10:39:59;;;;;;;0.82;0.82;;;19.20;99.90;;;;;;5017730;28;20492;-77
2023/05/11 10:42:41;;;;;;;0.70;0.70;;;18.60;99.90;;;;;;5012898;28;20436;-77
2023/05/11 10:45:23;;;;;;;0.60;0.60;;;18.50;99.90;;;;;;5040098;28;20983;-77
2023/05/11 10:47:53;;;;;;;0.67;0.67;;;18.50;99.90;;;;;;5016826;28;20534;-77
2023/05/11 10:50:56;;;;;;;0.93;0.82;;;19.20;99.90;;;;;;5032070;28;20437;-77
2023/05/11 10:53:45;;;;;;;0.73;0.73;;;19.40;99.90;;;;;;5022454;28;20993;-77
2023/05/11 10:56:40;;;;;;;0.80;0.80;;;19.70;99.90;;;;;;5040164;28;20943;-77
2023/05/11 10:59:35;;;;;;;0.77;0.77;;;19.70;99.90;;;;;;5009169;28;20435;-77
2023/05/11 11:02:03;;;;;;;0.85;0.80;;;19.80;99.90;;;;;;5026976;28;20521;-76
2023/05/11 11:04:48;;;;;;;3.30;0.93;;;19.80;99.90;;;;;;5023719;28;20511;-77
2023/05/11 11:07:17;;;;;;;0.65;0.65;;;19.90;99.90;;;;;;5022387;28;20438;-77
2023/05/11 11:09:59;;;;;;;1.27;1.05;;;20.00;99.90;;;;;;5022665;28;20430;-77
2023/05/11 11:12:28;;;;;;;0.90;0.80;;;19.90;99.90;;;;;;5014721;28;20431;-77
2023/05/11 11:15:01;;;;;;;0.93;0.93;;;20.00;99.90;;;;;;5019121;28;20921;-76
2023/05/11 11:17:34;;;;;;;0.60;0.60;;;19.70;99.90;;;;;;5012644;28;20523;-77
2023/05/11 11:20:05;;;;;;;1.02;1.00;;;19.40;99.90;;;;;;5018739;28;20469;-77
2023/05/11 11:22:39;;;;;;;0.98;0.98;;;19.50;99.90;;;;;;5014753;28;20487;-77
2023/05/11 11:25:11;;;;;;;0.95;0.95;;;19.10;99.90;;;;;;5022298;28;20443;-76
2023/05/11 11:27:44;;;;;;;0.90;0.90;;;18.80;99.90;;;;;;5020092;28;20965;-78
2023/05/11 11:30:16;;;;;;;0.80;0.80;;;18.90;99.90;;;;;;5036450;28;20427;-77
2023/05/11 11:32:43;;;;;;;0.80;0.80;;;18.90;99.90;;;;;;5024643;28;20442;-77
2023/05/11 11:35:40;;;;;;;0.80;0.80;;;18.90;99.90;;;;;;5022757;28;20783;-76
2023/05/11 11:38:08;;;;;;;0.85;0.85;;;19.10;99.90;;;;;;5031634;28;20426;-76
2023/05/11 11:40:56;;;;;;;1.90;1.10;;;19.00;99.90;;;;;;5014756;28;20431;-76
2023/05/11 11:43:25;;;;;;;0.90;0.90;;;18.70;99.90;;;;;;5021056;28;20443;-76
2023/05/11 11:45:59;;;;;;;1.20;1.05;;;18.60;99.90;;;;;;5018557;28;20937;-80
2023/05/11 11:48:34;;;;;;;0.90;0.90;;;18.30;99.90;;;;;;5015229;28;20961;-74
2023/05/11 11:51:09;;;;;;;1.33;1.10;;;18.20;99.90;;;;;;5017885;28;20674;-73
2023/05/11 11:53:36;;;;;;;0.95;0.95;;;18.20;99.90;;;;;;5019597;28;20876;-73
2023/05/11 11:56:04;;;;;;;0.90;0.90;;;18.10;99.90;;;;;;5019226;28;20438;-73
2023/05/11 11:58:45;;;;;;;0.93;0.93;;;18.20;99.90;;;;;;5013712;28;20436;-73
2023/05/11 12:01:17;;;;;;;1.10;1.10;;;18.50;99.90;;;;;;5017285;28;21288;-73
2023/05/11 12:03:51;;;;;;;1.07;1.00;;;18.40;99.90;;;;;;5016906;28;21243;-73
2023/05/11 12:06:21;;;;;;;1.25;1.10;;;18.50;99.90;;;;;;5015657;28;20430;-73
2023/05/11 12:08:58;;;;;;;2.00;1.40;;;18.20;99.90;;;;;;5020242;28;20430;-73
2023/05/11 12:11:28;;;;;;;1.33;1.23;;;18.30;99.90;;;;;;5021081;28;20439;-73
2023/05/11 12:13:55;;;;;;;1.98;1.40;;;18.40;99.90;;;;;;5019873;28;20947;-73
2023/05/11 12:16:22;;;;;;;1.20;1.10;;;18.70;1.00;;;;;;5016381;28;20877;-73
2023/05/11 12:18:55;;;;;;;1.50;1.40;;;18.50;99.90;;;;;;5020072;28;20450;-74
2023/05/11 12:21:28;;;;;;;1.42;1.33;;;18.70;99.90;;;;;;5024233;28;20980;-73
2023/05/11 12:24:04;;;;;;;1.52;1.30;;;19.10;99.90;;;;;;5021086;28;20918;-73
2023/05/11 12:26:32;;;;;;;1.30;1.20;;;19.00;99.90;;;;;;5020125;28;20745;-72
2023/05/11 12:29:17;;;;;;;1.02;0.93;;;18.90;99.90;;;;;;5020582;28;20450;-73
2023/05/11 12:31:45;;;;;;;1.50;1.40;;;18.90;99.90;;;;;;5019390;28;20993;-73
2023/05/11 12:34:14;;;;;;;1.23;1.13;;;18.30;99.90;;;;;;5018891;28;20438;-73
2023/05/11 12:36:45;;;;;;;1.40;1.40;;;17.90;99.90;;;;;;5020696;28;20608;-73
2023/05/11 12:39:28;;;;;;;1.77;1.67;;;17.70;99.90;;;;;;5019424;28;20597;-73
2023/05/11 12:41:55;;;;;;;1.23;1.15;;;17.50;1.00;;;;;;5020192;28;20834;-73
2023/05/11 12:44:24;;;;;;;1.17;1.13;;;17.50;1.00;;;;;;5019276;28;20435;-73
2023/05/11 12:46:52;;;;;;;0.97;0.97;;;17.60;1.00;;;;;;5015895;28;20945;-73
2023/05/11 12:49:23;;;;;;;1.63;1.25;;;17.40;1.00;;;;;;5017787;28;20448;-73
2023/05/11 12:52:12;;;;;;;1.23;1.10;;;17.20;1.00;;;;;;5016799;28;20933;-73
2023/05/11 12:54:53;;;;;;;1.17;1.08;;;16.80;99.90;;;;;;5016637;28;20442;-73
2023/05/11 12:57:28;;;;;;;1.20;1.20;;;16.80;37.00;;;;;;5015718;28;20949;-73
2023/05/11 13:00:12;;;;;;;2.20;1.38;;;16.80;1.00;;;;;;5019805;28;20553;-72
2023/05/11 13:02:49;;;;;;;0.80;0.80;;;16.20;3.90;;;;;;5015592;28;20439;-72
2023/05/11 13:05:18;;;;;;;0.98;0.98;;;15.60;1.00;;;;;;5014303;28;20426;-71
2023/05/11 13:07:47;;;;;;;1.38;1.08;;;15.20;1.00;;;;;;5024294;28;22030;-72